createdAt,value
2022-11-01T00:09:36.952Z,14.00
2022-11-01T00:19:38.596Z,13.90
2022-11-01T00:29:40.254Z,13.90
2022-11-01T00:39:41.917Z,13.80
2022-11-01T00:49:43.588Z,13.80
2022-11-01T00:59:45.300Z,13.80
2022-11-01T01:09:46.980Z,13.80
2022-11-01T01:19:48.646Z,13.70
2022-11-01T01:29:51.595Z,13.70
2022-11-01T01:39:53.561Z,13.60
2022-11-01T01:50:23.900Z,13.50
2022-11-01T02:00:26.204Z,13.50
2022-11-01T02:10:29.497Z,13.50
2022-11-01T02:20:43.899Z,13.50
2022-11-01T02:31:08.296Z,13.40
2022-11-01T02:41:48.210Z,13.40
2022-11-01T02:51:51.168Z,13.30
2022-11-01T03:02:08.554Z,13.30
2022-11-01T03:12:25.641Z,13.30
2022-11-01T03:22:44.277Z,13.30
2022-11-01T03:32:49.255Z,13.30
2022-11-01T03:42:54.370Z,13.30
2022-11-01T03:52:56.071Z,13.30
2022-11-01T04:02:58.956Z,13.30
2022-11-01T04:13:01.228Z,13.40
2022-11-01T04:23:05.716Z,13.30
2022-11-01T04:33:08.110Z,13.30
2022-11-01T04:43:10.721Z,13.30
2022-11-01T04:53:12.736Z,13.20
2022-11-01T05:03:14.554Z,13.20
2022-11-01T05:13:16.225Z,13.30
2022-11-01T05:23:17.904Z,13.30
2022-11-01T05:33:20.636Z,13.40
2022-11-01T05:43:22.285Z,13.40
2022-11-01T05:53:23.964Z,13.40
2022-11-01T06:03:25.839Z,13.40
2022-11-01T06:13:27.497Z,13.40
2022-11-01T06:23:29.200Z,13.40
2022-11-01T06:33:32.085Z,13.50
2022-11-01T06:43:33.759Z,13.50
2022-11-01T06:53:35.408Z,13.50
2022-11-01T07:03:37.100Z,13.50
2022-11-01T07:13:38.992Z,13.90
2022-11-01T07:23:40.659Z,14.30
2022-11-01T07:33:42.641Z,14.60
2022-11-01T07:43:44.317Z,14.80
2022-11-01T07:53:46.014Z,14.90
2022-11-01T08:03:49.307Z,15.20
2022-11-01T08:13:51.012Z,15.30
2022-11-01T08:23:52.684Z,15.40
2022-11-01T08:33:54.602Z,15.40
2022-11-01T08:43:58.533Z,15.50
2022-11-01T08:54:00.238Z,15.50
2022-11-01T09:04:02.076Z,15.60
2022-11-01T09:14:03.968Z,15.90
2022-11-01T09:24:05.789Z,16.00
2022-11-01T09:34:07.512Z,16.10
2022-11-01T09:44:18.597Z,16.30
2022-11-01T09:54:23.171Z,16.30
2022-11-01T10:04:51.626Z,16.40
2022-11-01T10:15:40.844Z,16.70
2022-11-01T10:25:48.942Z,17.20
2022-11-01T10:56:04.415Z,17.60
2022-11-01T11:06:10.184Z,17.60
2022-11-01T11:16:26.389Z,17.70
2022-11-01T11:26:38.493Z,17.70
2022-11-01T11:36:43.864Z,17.70
2022-11-01T11:46:57.061Z,17.60
2022-11-01T11:57:30.254Z,17.70
2022-11-01T12:07:39.966Z,17.20
2022-11-01T12:17:46.874Z,17.10
2022-11-01T12:28:04.429Z,16.70
2022-11-01T12:38:32.195Z,16.60
2022-11-01T12:48:39.941Z,16.70
2022-11-01T12:58:41.775Z,16.80
2022-11-01T13:08:46.375Z,17.00
2022-11-01T13:18:58.552Z,17.10
2022-11-01T13:29:28.280Z,17.20
2022-11-01T13:39:50.127Z,17.20
2022-11-01T13:50:13.500Z,17.30
2022-11-01T14:00:44.472Z,17.40
2022-11-01T14:10:47.805Z,17.50
2022-11-01T14:20:57.065Z,17.70
2022-11-01T14:30:58.741Z,17.90
2022-11-01T14:41:00.850Z,18.00
2022-11-01T14:51:12.233Z,18.10
2022-11-01T15:01:23.435Z,18.10
2022-11-01T15:11:34.499Z,17.80
2022-11-01T15:21:47.262Z,17.60
2022-11-01T15:31:57.362Z,17.40
2022-11-01T15:41:59.080Z,17.10
2022-11-01T15:52:04.963Z,16.80
2022-11-01T16:02:17.085Z,16.60
2022-11-01T16:12:32.033Z,16.40
2022-11-01T16:22:42.662Z,16.30
2022-11-01T16:32:44.325Z,16.10
2022-11-01T16:42:48.763Z,16.10
2022-11-01T16:52:50.402Z,15.90
2022-11-01T17:02:52.196Z,15.80
2022-11-01T17:12:57.658Z,15.80
2022-11-01T17:22:59.528Z,15.60
2022-11-01T17:33:01.193Z,15.50
2022-11-01T17:43:03.704Z,15.20
2022-11-01T17:53:06.643Z,15.00
2022-11-01T18:03:10.444Z,14.80
2022-11-01T18:13:31.282Z,14.40
2022-11-01T18:23:34.167Z,14.40
2022-11-01T18:33:50.886Z,14.20
2022-11-01T18:43:53.563Z,14.10
2022-11-01T18:54:01.394Z,13.80
2022-11-01T19:04:21.897Z,13.80
2022-11-01T19:14:23.821Z,13.80
2022-11-01T19:24:39.833Z,13.80
2022-11-01T19:34:42.022Z,13.70
2022-11-01T19:44:43.879Z,13.40
2022-11-01T19:54:49.333Z,13.40
2022-11-01T20:04:59.379Z,13.00
2022-11-01T20:15:01.017Z,13.00
2022-11-01T20:25:02.885Z,13.20
2022-11-01T20:35:05.322Z,12.70
2022-11-01T20:45:07.356Z,12.60
2022-11-01T20:55:10.979Z,12.40
2022-11-01T21:05:25.402Z,12.20
2022-11-01T21:15:33.406Z,12.00
2022-11-01T21:25:35.607Z,12.00
2022-11-01T21:35:40.211Z,11.80
2022-11-01T21:45:42.008Z,11.70
2022-11-01T21:55:43.699Z,11.70
2022-11-01T22:05:45.325Z,11.60
2022-11-01T22:15:47.089Z,11.50
2022-11-01T22:25:48.776Z,11.40
2022-11-01T22:35:50.416Z,11.20
2022-11-01T22:45:52.979Z,11.20
2022-11-01T22:55:55.099Z,11.00
2022-11-01T23:06:04.706Z,11.00
2022-11-01T23:16:31.562Z,10.90
2022-11-01T23:26:33.885Z,10.90
2022-11-01T23:36:38.434Z,10.70
2022-11-01T23:46:40.232Z,10.60
2022-11-01T23:56:43.674Z,10.60
